Spearsville, Louisiana
Current Conditions -  °F | °C
As of 5:53 AM on Sunday 21 Dec 2014 (Local Time) from KELD Reporting Station
Haze Haze  
Wind Chill: 32°   Ceiling: Unl
Heat Index: 32°   Visibility: 5mi
Dew Point: 31°   Wind: 3mph
Humidity: 96%   Direction: 340°NNW
Pressure: 30.17"   Gusts: NA
Location:  32.94°N, 92.61°W
Report Text: KELD 211153Z AUTO 34003KT 5SM BR CLR 00/M01 A3017 RMK AO2 SLP218 I1000 I6000 T00001006 10033 20000 55006
Loading
Personal Weather Stations






























Interactive Weather Map New forecast layout! Learn more

10-Day Weather Forecast

Advertisements
Track Severe Weather on mobile